Flight Track Log - Related Links

Times and Time Zones

All times are in EDT time to prevent confusion due to time zone crossing. See the UCA3599 flight status page for this flight to view local times or setup timezone preferences in your user account.

Time Position Orientation Groundspeed Altitude Reporting Facility
EDT Latitude Longitude Course Direction KTS MPH feet Rate Location/Type
Wed 06:09:58 AM 42.1492 -76.0097 212° Southwest 163 188 4,200  Level New York Center
Wed 06:10:58 AM 42.1144 -76.0461 218° Southwest 163 188 5,600 1,450 Climbing New York Center
Wed 06:11:58 AM 42.0753 -76.0822 214° Southwest 163 188 7,100 1,550 Climbing New York Center
Wed 06:12:58 AM 42.0383 -76.1183 216° Southwest 163 188 8,700 1,500 Climbing New York Center
Wed 06:13:58 AM 42.0033 -76.1517 215° Southwest 163 188 10,100 1,200 Climbing New York Center
Wed 06:14:00 AM 41.8397 -76.1549 212° Southwest  Level Estimated
Wed 06:14:58 AM 41.9686 -76.1825 213° Southwest 157 181 11,100  Level New York Center
Wed 06:15:58 AM 41.9253 -76.2233 215° Southwest 168 193 12,400 1,250 Climbing New York Center
Wed 06:16:58 AM 41.8836 -76.2644 216° Southwest 181 208 13,600 1,200 Climbing New York Center
Wed 06:17:58 AM 41.8422 -76.3058 217° Southwest 187 215 14,800 1,150 Climbing New York Center
Wed 06:18:58 AM 41.8033 -76.3386 212° Southwest 187 215 15,900 600 Climbing New York Center
Wed 06:19:58 AM 41.7553 -76.3847 216° Southwest 194 223 16,000 50 Climbing New York Center
Wed 06:20:58 AM 41.6964 -76.4408 215° Southwest 237 273 16,000  Level New York Center
Wed 06:21:58 AM 41.6397 -76.4944 215° Southwest 254 292 16,000  Level New York Center
Wed 06:22:58 AM 41.5828 -76.5506 216° Southwest 259 298 16,000  Level New York Center
Wed 06:23:58 AM 41.5306 -76.5958 213° Southwest 259 298 16,000  Level New York Center
Wed 06:24:58 AM 41.4672 -76.6569 216° Southwest 253 291 16,000  Level New York Center
Wed 06:25:58 AM 41.4147 -76.7047 214° Southwest 253 291 16,000  Level New York Center
Wed 06:26:58 AM 41.3578 -76.7606 216° Southwest 253 291 16,000  Level New York Center
Wed 06:27:58 AM 41.2894 -76.7933 200° South 253 291 16,000  Level New York Center
Wed 06:28:58 AM 41.2178 -76.8117 191° South 258 297 16,000 -250 Level New York Center
Wed 06:29:58 AM 41.1458 -76.8328 192° South 263 303 15,500 -500 Descending New York Center
Wed 06:30:58 AM 41.0700 -76.8508 190° South 268 308 15,000 -500 Descending New York Center
Wed 06:31:58 AM 40.9958 -76.8744 194° South 275 316 14,500 -500 Descending New York Center
Wed 06:32:58 AM 40.9153 -76.8975 192° South 280 322 14,000 -250 Descending New York Center
Wed 06:33:58 AM 40.8436 -76.9156 191° South 280 322 14,000  Level New York Center
Wed 06:34:58 AM 40.7717 -76.9339 191° South 275 316 14,000  Level New York Center
Wed 06:35:58 AM 40.7019 -76.9522 191° South 270 311 14,000  Level New York Center
Wed 06:36:58 AM 40.6322 -76.9733 193° South 260 299 14,000  Level New York Center
Wed 06:37:58 AM 40.5625 -76.9917 191° South 260 299 14,000  Level New York Center
Wed 06:38:58 AM 40.4925 -77.0100 191° South 260 299 14,000 -50 Level New York Center
Wed 06:39:58 AM 40.4228 -77.0281 191° South 260 299 13,900 -618 Descending New York Center
Wed 06:42:22 AM 40.2500 -77.0833 194° South 264 304 11,900 -882 Descending Potomac TRACON
Wed 06:43:22 AM 40.1833 -77.1167 201° Southwest 268 308 10,900 -1,050 Descending Potomac TRACON
Wed 06:44:22 AM 40.1167 -77.1333 191° South 269 310 9,800 -991 Descending Potomac TRACON
Wed 06:45:17 AM 40.0500 -77.1667 201° Southwest 267 307 9,000 -440 Descending Potomac TRACON
Wed 06:46:11 AM 39.9833 -77.1833 191° South 250 288 9,000  Level Potomac TRACON
Wed 06:47:05 AM 39.9333 -77.2167 207° Southwest 244 281 9,000 -105 Level Potomac TRACON
Wed 06:48:05 AM 39.8667 -77.2333 191° South 244 281 8,800 -526 Descending Potomac TRACON
Wed 06:48:59 AM 39.8000 -77.2667 201° Southwest 253 291 8,000 -474 Descending Potomac TRACON
Wed 06:49:59 AM 39.7333 -77.3000 201° Southwest 250 288 7,900 -500 Descending Potomac TRACON
Wed 06:50:59 AM 39.6667 -77.3333 201° Southwest 254 292 7,000 -900 Descending Potomac TRACON
Wed 06:51:59 AM 39.6167 -77.3833 218° Southwest 248 285 6,100 -895 Descending Potomac TRACON
Wed 06:52:53 AM 39.5667 -77.4000 194° South 241 277 5,300 -887 Descending Potomac TRACON
Wed 06:53:54 AM 39.5000 -77.4167 191° South 230 265 4,400 -650 Descending Potomac TRACON
Wed 06:54:53 AM 39.4333 -77.4333 191° South 227 261 4,000 -250 Descending Potomac TRACON
Wed 06:55:54 AM 39.3667 -77.4333 180° South 209 241 3,900 -347 Descending Potomac TRACON
Wed 06:56:54 AM 39.3167 -77.4333 180° South 190 219 3,300 -450 Descending Potomac TRACON
Wed 06:57:54 AM 39.2667 -77.4333 180° South 200 230 3,000 -158 Descending Potomac TRACON
Wed 06:58:48 AM 39.2167 -77.4333 180° South 194 223 3,000  Level Potomac TRACON
Wed 06:59:48 AM 39.1667 -77.4333 180° South 155 178 3,000  Level Potomac TRACON
Wed 07:00:48 AM 39.1333 -77.4333 180° South 156 180 3,000 -100 Level Potomac TRACON
Wed 07:01:48 AM 39.0833 -77.4333 180° South 158 182 2,800 -550 Descending Potomac TRACON
Wed 07:02:48 AM 39.0333 -77.4333 180° South 153 176 1,900 -750 Descending Potomac TRACON
Wed 07:03:48 AM 39.0000 -77.4333 180° South 114 131 1,300 -600 Descending Potomac TRACON
Wed 07:04:48 AM 38.9667 -77.4333 180° South 109 125 700 -600 Descending Potomac TRACON

Login

Don't have an account? Register now (free) for customized features, flight alerts, and more!